sensor_id;sensor_type;location;lat;lon;timestamp;P1;durP1;ratioP1;P2;durP2;ratioP2
49962;SDS011;36180;57.678;11.910;2023-07-31T00:01:57;6.97;;;2.30;;
49962;SDS011;36180;57.678;11.910;2023-07-31T00:04:24;5.85;;;2.08;;
49962;SDS011;36180;57.678;11.910;2023-07-31T00:06:51;4.00;;;2.22;;
49962;SDS011;36180;57.678;11.910;2023-07-31T00:09:19;3.78;;;2.10;;
49962;SDS011;36180;57.678;11.910;2023-07-31T00:11:46;5.30;;;2.20;;
49962;SDS011;36180;57.678;11.910;2023-07-31T00:14:14;5.68;;;1.95;;
49962;SDS011;36180;57.678;11.910;2023-07-31T00:16:41;5.03;;;2.35;;
49962;SDS011;36180;57.678;11.910;2023-07-31T00:19:08;6.20;;;2.17;;
49962;SDS011;36180;57.678;11.910;2023-07-31T00:21:35;6.88;;;2.63;;
49962;SDS011;36180;57.678;11.910;2023-07-31T00:24:02;7.53;;;2.30;;
49962;SDS011;36180;57.678;11.910;2023-07-31T00:26:29;4.57;;;2.40;;
49962;SDS011;36180;57.678;11.910;2023-07-31T00:28:57;8.80;;;2.65;;
49962;SDS011;36180;57.678;11.910;2023-07-31T00:31:26;5.90;;;3.70;;
49962;SDS011;36180;57.678;11.910;2023-07-31T00:33:54;11.32;;;5.35;;
49962;SDS011;36180;57.678;11.910;2023-07-31T00:36:21;8.77;;;4.65;;
49962;SDS011;36180;57.678;11.910;2023-07-31T00:38:48;6.30;;;4.18;;
49962;SDS011;36180;57.678;11.910;2023-07-31T00:41:15;8.65;;;3.40;;
49962;SDS011;36180;57.678;11.910;2023-07-31T00:43:42;7.97;;;2.92;;
49962;SDS011;36180;57.678;11.910;2023-07-31T00:46:09;6.78;;;2.53;;
49962;SDS011;36180;57.678;11.910;2023-07-31T00:48:38;4.03;;;2.78;;
49962;SDS011;36180;57.678;11.910;2023-07-31T00:51:06;3.50;;;2.83;;
49962;SDS011;36180;57.678;11.910;2023-07-31T00:53:33;7.22;;;3.80;;
49962;SDS011;36180;57.678;11.910;2023-07-31T00:56:01;10.15;;;6.93;;
49962;SDS011;36180;57.678;11.910;2023-07-31T00:58:28;16.05;;;9.45;;
49962;SDS011;36180;57.678;11.910;2023-07-31T01:00:55;15.98;;;9.35;;
49962;SDS011;36180;57.678;11.910;2023-07-31T01:03:22;11.77;;;9.32;;
49962;SDS011;36180;57.678;11.910;2023-07-31T01:05:53;15.30;;;10.43;;
49962;SDS011;36180;57.678;11.910;2023-07-31T01:08:29;12.05;;;9.20;;
49962;SDS011;36180;57.678;11.910;2023-07-31T01:11:00;18.33;;;9.00;;
49962;SDS011;36180;57.678;11.910;2023-07-31T01:13:31;13.10;;;8.38;;
49962;SDS011;36180;57.678;11.910;2023-07-31T01:15:58;15.05;;;8.50;;
49962;SDS011;36180;57.678;11.910;2023-07-31T01:18:26;13.43;;;7.40;;
49962;SDS011;36180;57.678;11.910;2023-07-31T01:21:02;13.07;;;8.52;;
49962;SDS011;36180;57.678;11.910;2023-07-31T01:26:26;14.20;;;9.55;;
49962;SDS011;36180;57.678;11.910;2023-07-31T01:28:58;15.20;;;9.60;;
49962;SDS011;36180;57.678;11.910;2023-07-31T01:31:29;12.45;;;9.55;;
49962;SDS011;36180;57.678;11.910;2023-07-31T01:33:57;16.05;;;10.07;;
49962;SDS011;36180;57.678;11.910;2023-07-31T01:36:26;16.40;;;8.98;;
49962;SDS011;36180;57.678;11.910;2023-07-31T01:38:57;15.40;;;9.80;;
49962;SDS011;36180;57.678;11.910;2023-07-31T01:41:26;12.23;;;9.80;;
49962;SDS011;36180;57.678;11.910;2023-07-31T01:43:53;10.57;;;8.02;;
49962;SDS011;36180;57.678;11.910;2023-07-31T01:46:20;12.52;;;8.15;;
49962;SDS011;36180;57.678;11.910;2023-07-31T01:48:47;11.07;;;7.78;;
49962;SDS011;36180;57.678;11.910;2023-07-31T01:51:15;8.00;;;6.05;;
49962;SDS011;36180;57.678;11.910;2023-07-31T01:53:42;7.85;;;5.88;;
49962;SDS011;36180;57.678;11.910;2023-07-31T01:56:09;9.10;;;5.25;;
49962;SDS011;36180;57.678;11.910;2023-07-31T01:58:37;9.40;;;5.28;;
49962;SDS011;36180;57.678;11.910;2023-07-31T02:01:04;8.93;;;5.38;;
49962;SDS011;36180;57.678;11.910;2023-07-31T02:03:33;10.90;;;5.22;;
49962;SDS011;36180;57.678;11.910;2023-07-31T02:06:00;11.70;;;5.65;;
49962;SDS011;36180;57.678;11.910;2023-07-31T02:08:27;11.75;;;5.43;;
49962;SDS011;36180;57.678;11.910;2023-07-31T02:10:54;7.68;;;5.22;;
49962;SDS011;36180;57.678;11.910;2023-07-31T02:13:22;11.18;;;5.30;;
49962;SDS011;36180;57.678;11.910;2023-07-31T02:15:50;11.95;;;5.88;;
49962;SDS011;36180;57.678;11.910;2023-07-31T02:18:17;8.38;;;6.15;;
49962;SDS011;36180;57.678;11.910;2023-07-31T02:20:48;8.15;;;6.57;;
49962;SDS011;36180;57.678;11.910;2023-07-31T02:23:16;12.25;;;7.35;;
49962;SDS011;36180;57.678;11.910;2023-07-31T02:25:43;16.15;;;7.28;;
49962;SDS011;36180;57.678;11.910;2023-07-31T02:28:11;16.67;;;9.05;;
49962;SDS011;36180;57.678;11.910;2023-07-31T02:30:38;18.25;;;13.10;;
49962;SDS011;36180;57.678;11.910;2023-07-31T02:33:07;21.67;;;13.80;;
49962;SDS011;36180;57.678;11.910;2023-07-31T02:35:34;19.17;;;13.52;;
49962;SDS011;36180;57.678;11.910;2023-07-31T02:38:01;18.38;;;11.70;;
49962;SDS011;36180;57.678;11.910;2023-07-31T02:40:28;17.00;;;10.48;;
49962;SDS011;36180;57.678;11.910;2023-07-31T02:42:55;12.50;;;7.43;;
49962;SDS011;36180;57.678;11.910;2023-07-31T02:45:23;13.57;;;8.40;;
49962;SDS011;36180;57.678;11.910;2023-07-31T02:47:50;11.15;;;8.75;;
49962;SDS011;36180;57.678;11.910;2023-07-31T02:50:18;14.07;;;9.25;;
49962;SDS011;36180;57.678;11.910;2023-07-31T02:52:45;13.18;;;7.45;;
49962;SDS011;36180;57.678;11.910;2023-07-31T02:55:12;13.38;;;8.32;;
49962;SDS011;36180;57.678;11.910;2023-07-31T02:57:40;15.02;;;7.93;;
49962;SDS011;36180;57.678;11.910;2023-07-31T03:00:07;12.77;;;6.82;;
49962;SDS011;36180;57.678;11.910;2023-07-31T03:02:34;12.68;;;7.38;;
49962;SDS011;36180;57.678;11.910;2023-07-31T03:05:01;14.13;;;6.57;;
49962;SDS011;36180;57.678;11.910;2023-07-31T03:07:30;15.95;;;8.23;;
49962;SDS011;36180;57.678;11.910;2023-07-31T03:09:57;13.30;;;7.63;;
49962;SDS011;36180;57.678;11.910;2023-07-31T03:12:24;17.48;;;8.55;;
49962;SDS011;36180;57.678;11.910;2023-07-31T03:14:51;10.60;;;7.05;;
49962;SDS011;36180;57.678;11.910;2023-07-31T03:17:18;13.68;;;8.13;;
49962;SDS011;36180;57.678;11.910;2023-07-31T03:19:46;14.05;;;7.93;;
49962;SDS011;36180;57.678;11.910;2023-07-31T03:22:13;11.70;;;6.93;;
49962;SDS011;36180;57.678;11.910;2023-07-31T03:24:41;11.40;;;7.50;;
49962;SDS011;36180;57.678;11.910;2023-07-31T03:27:08;16.27;;;6.80;;
49962;SDS011;36180;57.678;11.910;2023-07-31T03:29:35;12.57;;;6.90;;
49962;SDS011;36180;57.678;11.910;2023-07-31T03:32:02;11.00;;;5.65;;
49962;SDS011;36180;57.678;11.910;2023-07-31T03:34:30;12.75;;;6.93;;
49962;SDS011;36180;57.678;11.910;2023-07-31T03:36:58;15.70;;;9.10;;
49962;SDS011;36180;57.678;11.910;2023-07-31T03:39:25;19.17;;;9.98;;
49962;SDS011;36180;57.678;11.910;2023-07-31T03:41:54;17.67;;;10.60;;
49962;SDS011;36180;57.678;11.910;2023-07-31T03:44:21;21.80;;;12.98;;
49962;SDS011;36180;57.678;11.910;2023-07-31T03:46:48;17.58;;;12.50;;
49962;SDS011;36180;57.678;11.910;2023-07-31T03:49:15;16.90;;;12.50;;
49962;SDS011;36180;57.678;11.910;2023-07-31T03:51:42;19.45;;;12.38;;
49962;SDS011;36180;57.678;11.910;2023-07-31T03:54:09;15.80;;;10.40;;
49962;SDS011;36180;57.678;11.910;2023-07-31T03:56:38;16.55;;;11.23;;
49962;SDS011;36180;57.678;11.910;2023-07-31T03:59:06;18.38;;;9.80;;
49962;SDS011;36180;57.678;11.910;2023-07-31T04:01:33;17.02;;;9.05;;
49962;SDS011;36180;57.678;11.910;2023-07-31T04:04:00;19.00;;;8.55;;
49962;SDS011;36180;57.678;11.910;2023-07-31T04:06:27;19.55;;;9.13;;
49962;SDS011;36180;57.678;11.910;2023-07-31T04:08:54;19.17;;;10.48;;
49962;SDS011;36180;57.678;11.910;2023-07-31T04:11:21;16.50;;;8.00;;
49962;SDS011;36180;57.678;11.910;2023-07-31T04:13:49;17.83;;;7.30;;
49962;SDS011;36180;57.678;11.910;2023-07-31T04:16:17;15.07;;;6.47;;
49962;SDS011;36180;57.678;11.910;2023-07-31T04:18:44;10.90;;;5.78;;
49962;SDS011;36180;57.678;11.910;2023-07-31T04:21:11;13.23;;;5.50;;
49962;SDS011;36180;57.678;11.910;2023-07-31T04:23:38;14.65;;;6.90;;
49962;SDS011;36180;57.678;11.910;2023-07-31T04:26:05;13.13;;;7.53;;
49962;SDS011;36180;57.678;11.910;2023-07-31T04:28:32;13.70;;;5.80;;
49962;SDS011;36180;57.678;11.910;2023-07-31T04:30:59;14.68;;;5.75;;
49962;SDS011;36180;57.678;11.910;2023-07-31T04:33:28;9.50;;;5.15;;
49962;SDS011;36180;57.678;11.910;2023-07-31T04:35:55;11.77;;;4.72;;
49962;SDS011;36180;57.678;11.910;2023-07-31T04:38:22;9.63;;;4.28;;
49962;SDS011;36180;57.678;11.910;2023-07-31T04:40:49;11.38;;;4.47;;
49962;SDS011;36180;57.678;11.910;2023-07-31T04:43:16;10.13;;;4.40;;
49962;SDS011;36180;57.678;11.910;2023-07-31T04:45:45;10.77;;;4.65;;
49962;SDS011;36180;57.678;11.910;2023-07-31T04:48:13;14.20;;;4.53;;
49962;SDS011;36180;57.678;11.910;2023-07-31T04:50:41;14.43;;;4.50;;
49962;SDS011;36180;57.678;11.910;2023-07-31T04:53:09;12.50;;;4.53;;
49962;SDS011;36180;57.678;11.910;2023-07-31T04:55:36;11.38;;;4.65;;
49962;SDS011;36180;57.678;11.910;2023-07-31T04:58:03;16.45;;;5.45;;
49962;SDS011;36180;57.678;11.910;2023-07-31T05:00:30;15.40;;;5.05;;
49962;SDS011;36180;57.678;11.910;2023-07-31T05:02:57;13.65;;;4.63;;
49962;SDS011;36180;57.678;11.910;2023-07-31T05:05:24;14.80;;;4.82;;
49962;SDS011;36180;57.678;11.910;2023-07-31T05:07:53;8.75;;;4.55;;
49962;SDS011;36180;57.678;11.910;2023-07-31T05:10:20;16.13;;;4.40;;
49962;SDS011;36180;57.678;11.910;2023-07-31T05:12:47;11.23;;;4.30;;
49962;SDS011;36180;57.678;11.910;2023-07-31T05:15:14;8.85;;;4.07;;
49962;SDS011;36180;57.678;11.910;2023-07-31T05:17:41;10.27;;;4.50;;
49962;SDS011;36180;57.678;11.910;2023-07-31T05:20:08;10.27;;;4.05;;
49962;SDS011;36180;57.678;11.910;2023-07-31T05:22:35;12.48;;;4.88;;
49962;SDS011;36180;57.678;11.910;2023-07-31T05:25:04;18.35;;;4.95;;
49962;SDS011;36180;57.678;11.910;2023-07-31T05:27:32;11.95;;;4.90;;
49962;SDS011;36180;57.678;11.910;2023-07-31T05:29:59;12.93;;;4.40;;
49962;SDS011;36180;57.678;11.910;2023-07-31T05:32:26;9.27;;;4.68;;
49962;SDS011;36180;57.678;11.910;2023-07-31T05:34:54;8.15;;;3.78;;
49962;SDS011;36180;57.678;11.910;2023-07-31T05:37:21;11.23;;;3.63;;
49962;SDS011;36180;57.678;11.910;2023-07-31T05:39:48;10.32;;;3.53;;
49962;SDS011;36180;57.678;11.910;2023-07-31T05:42:17;14.63;;;3.60;;
49962;SDS011;36180;57.678;11.910;2023-07-31T05:44:44;8.27;;;3.22;;
49962;SDS011;36180;57.678;11.910;2023-07-31T05:47:12;13.23;;;4.47;;
49962;SDS011;36180;57.678;11.910;2023-07-31T05:49:39;10.60;;;4.05;;
49962;SDS011;36180;57.678;11.910;2023-07-31T05:52:06;10.93;;;3.00;;
49962;SDS011;36180;57.678;11.910;2023-07-31T05:54:33;10.02;;;2.88;;
49962;SDS011;36180;57.678;11.910;2023-07-31T05:57:00;8.00;;;3.13;;
49962;SDS011;36180;57.678;11.910;2023-07-31T05:59:29;10.43;;;2.72;;
49962;SDS011;36180;57.678;11.910;2023-07-31T06:01:58;7.88;;;3.40;;
49962;SDS011;36180;57.678;11.910;2023-07-31T06:04:25;8.13;;;2.50;;
49962;SDS011;36180;57.678;11.910;2023-07-31T06:06:53;13.38;;;2.78;;
49962;SDS011;36180;57.678;11.910;2023-07-31T06:09:20;8.95;;;2.70;;
49962;SDS011;36180;57.678;11.910;2023-07-31T06:11:47;10.50;;;3.33;;
49962;SDS011;36180;57.678;11.910;2023-07-31T06:14:14;9.40;;;2.80;;
49962;SDS011;36180;57.678;11.910;2023-07-31T06:16:43;7.90;;;2.50;;
49962;SDS011;36180;57.678;11.910;2023-07-31T06:19:10;11.98;;;2.75;;
49962;SDS011;36180;57.678;11.910;2023-07-31T06:21:37;9.05;;;2.55;;
49962;SDS011;36180;57.678;11.910;2023-07-31T06:24:07;11.45;;;2.55;;
49962;SDS011;36180;57.678;11.910;2023-07-31T06:26:34;10.75;;;2.63;;
49962;SDS011;36180;57.678;11.910;2023-07-31T06:29:01;12.18;;;2.78;;
49962;SDS011;36180;57.678;11.910;2023-07-31T06:31:28;9.48;;;2.78;;
49962;SDS011;36180;57.678;11.910;2023-07-31T06:33:57;9.10;;;2.92;;
49962;SDS011;36180;57.678;11.910;2023-07-31T06:36:27;8.60;;;3.07;;
49962;SDS011;36180;57.678;11.910;2023-07-31T06:38:54;12.68;;;3.05;;
49962;SDS011;36180;57.678;11.910;2023-07-31T06:41:21;9.10;;;3.03;;
49962;SDS011;36180;57.678;11.910;2023-07-31T06:43:48;10.98;;;2.67;;
49962;SDS011;36180;57.678;11.910;2023-07-31T06:46:15;7.43;;;2.53;;
49962;SDS011;36180;57.678;11.910;2023-07-31T06:48:42;9.80;;;2.55;;
49962;SDS011;36180;57.678;11.910;2023-07-31T06:51:10;8.82;;;2.63;;
49962;SDS011;36180;57.678;11.910;2023-07-31T06:53:37;11.27;;;3.20;;
49962;SDS011;36180;57.678;11.910;2023-07-31T06:56:05;11.05;;;3.10;;
49962;SDS011;36180;57.678;11.910;2023-07-31T06:58:32;8.95;;;3.08;;
49962;SDS011;36180;57.678;11.910;2023-07-31T07:00:59;11.95;;;3.25;;
49962;SDS011;36180;57.678;11.910;2023-07-31T07:03:26;11.00;;;3.40;;
49962;SDS011;36180;57.678;11.910;2023-07-31T07:05:53;8.60;;;3.50;;
49962;SDS011;36180;57.678;11.910;2023-07-31T07:08:21;9.27;;;3.33;;
49962;SDS011;36180;57.678;11.910;2023-07-31T07:10:48;10.85;;;3.22;;
49962;SDS011;36180;57.678;11.910;2023-07-31T07:13:16;9.15;;;3.20;;
49962;SDS011;36180;57.678;11.910;2023-07-31T07:15:43;11.55;;;3.63;;
49962;SDS011;36180;57.678;11.910;2023-07-31T07:18:13;14.98;;;3.63;;
49962;SDS011;36180;57.678;11.910;2023-07-31T07:20:45;9.82;;;3.47;;
49962;SDS011;36180;57.678;11.910;2023-07-31T07:23:13;12.63;;;3.45;;
49962;SDS011;36180;57.678;11.910;2023-07-31T07:25:41;13.70;;;3.70;;
49962;SDS011;36180;57.678;11.910;2023-07-31T07:28:08;13.23;;;3.63;;
49962;SDS011;36180;57.678;11.910;2023-07-31T07:30:35;12.23;;;3.97;;
49962;SDS011;36180;57.678;11.910;2023-07-31T07:33:03;12.10;;;4.38;;
49962;SDS011;36180;57.678;11.910;2023-07-31T07:35:30;8.75;;;3.53;;
49962;SDS011;36180;57.678;11.910;2023-07-31T07:37:59;10.90;;;3.50;;
49962;SDS011;36180;57.678;11.910;2023-07-31T07:40:26;10.10;;;3.30;;
49962;SDS011;36180;57.678;11.910;2023-07-31T07:42:54;11.68;;;3.30;;
49962;SDS011;36180;57.678;11.910;2023-07-31T07:45:21;8.95;;;3.80;;
49962;SDS011;36180;57.678;11.910;2023-07-31T07:47:48;6.55;;;3.65;;
49962;SDS011;36180;57.678;11.910;2023-07-31T07:50:16;12.20;;;4.20;;
49962;SDS011;36180;57.678;11.910;2023-07-31T07:52:43;8.85;;;3.42;;
49962;SDS011;36180;57.678;11.910;2023-07-31T07:55:10;11.35;;;3.60;;
49962;SDS011;36180;57.678;11.910;2023-07-31T07:57:37;12.10;;;3.65;;
49962;SDS011;36180;57.678;11.910;2023-07-31T08:00:06;9.18;;;3.58;;
49962;SDS011;36180;57.678;11.910;2023-07-31T08:02:41;11.68;;;2.50;;
49962;SDS011;36180;57.678;11.910;2023-07-31T08:05:08;10.23;;;2.92;;
49962;SDS011;36180;57.678;11.910;2023-07-31T08:07:35;9.77;;;3.30;;
49962;SDS011;36180;57.678;11.910;2023-07-31T08:10:03;9.07;;;2.75;;
49962;SDS011;36180;57.678;11.910;2023-07-31T08:12:30;8.82;;;2.70;;
49962;SDS011;36180;57.678;11.910;2023-07-31T08:14:57;7.53;;;2.78;;
49962;SDS011;36180;57.678;11.910;2023-07-31T08:17:26;7.50;;;3.00;;
49962;SDS011;36180;57.678;11.910;2023-07-31T08:19:53;5.45;;;2.90;;
49962;SDS011;36180;57.678;11.910;2023-07-31T08:22:23;6.15;;;2.33;;
49962;SDS011;36180;57.678;11.910;2023-07-31T08:24:50;8.60;;;2.33;;
49962;SDS011;36180;57.678;11.910;2023-07-31T08:27:17;6.20;;;2.22;;
49962;SDS011;36180;57.678;11.910;2023-07-31T08:29:44;7.90;;;2.60;;
49962;SDS011;36180;57.678;11.910;2023-07-31T08:32:11;5.13;;;2.20;;
49962;SDS011;36180;57.678;11.910;2023-07-31T08:34:40;5.43;;;2.13;;
49962;SDS011;36180;57.678;11.910;2023-07-31T08:37:07;6.32;;;1.77;;
49962;SDS011;36180;57.678;11.910;2023-07-31T08:39:34;9.10;;;2.10;;
49962;SDS011;36180;57.678;11.910;2023-07-31T08:42:07;6.75;;;2.30;;
49962;SDS011;36180;57.678;11.910;2023-07-31T08:44:34;5.00;;;2.05;;
49962;SDS011;36180;57.678;11.910;2023-07-31T08:47:01;4.43;;;1.67;;
49962;SDS011;36180;57.678;11.910;2023-07-31T08:49:29;4.03;;;1.88;;
49962;SDS011;36180;57.678;11.910;2023-07-31T08:51:58;6.18;;;2.03;;
49962;SDS011;36180;57.678;11.910;2023-07-31T08:54:26;4.93;;;1.88;;
49962;SDS011;36180;57.678;11.910;2023-07-31T08:56:56;3.22;;;1.63;;
49962;SDS011;36180;57.678;11.910;2023-07-31T08:59:25;5.60;;;1.77;;
49962;SDS011;36180;57.678;11.910;2023-07-31T09:01:53;5.05;;;1.50;;
49962;SDS011;36180;57.678;11.910;2023-07-31T09:04:20;4.90;;;1.33;;
49962;SDS011;36180;57.678;11.910;2023-07-31T09:06:48;4.13;;;1.20;;
49962;SDS011;36180;57.678;11.910;2023-07-31T09:09:16;4.45;;;1.30;;
49962;SDS011;36180;57.678;11.910;2023-07-31T09:11:46;5.18;;;1.17;;
49962;SDS011;36180;57.678;11.910;2023-07-31T09:14:13;5.35;;;1.60;;
49962;SDS011;36180;57.678;11.910;2023-07-31T09:16:51;3.90;;;1.27;;
49962;SDS011;36180;57.678;11.910;2023-07-31T09:19:24;6.80;;;1.33;;
49962;SDS011;36180;57.678;11.910;2023-07-31T09:21:52;4.03;;;1.10;;
49962;SDS011;36180;57.678;11.910;2023-07-31T09:24:26;3.67;;;1.20;;
49962;SDS011;36180;57.678;11.910;2023-07-31T09:26:55;2.03;;;1.08;;
49962;SDS011;36180;57.678;11.910;2023-07-31T09:29:23;2.65;;;0.93;;
49962;SDS011;36180;57.678;11.910;2023-07-31T09:31:52;5.40;;;1.35;;
49962;SDS011;36180;57.678;11.910;2023-07-31T09:34:19;5.47;;;1.23;;
49962;SDS011;36180;57.678;11.910;2023-07-31T09:36:47;4.22;;;1.15;;
49962;SDS011;36180;57.678;11.910;2023-07-31T09:39:16;2.92;;;0.90;;
49962;SDS011;36180;57.678;11.910;2023-07-31T09:41:47;2.60;;;1.05;;
49962;SDS011;36180;57.678;11.910;2023-07-31T09:44:14;1.80;;;0.95;;
49962;SDS011;36180;57.678;11.910;2023-07-31T09:46:42;3.28;;;1.25;;
49962;SDS011;36180;57.678;11.910;2023-07-31T09:49:09;3.10;;;1.20;;
49962;SDS011;36180;57.678;11.910;2023-07-31T09:51:37;2.95;;;1.08;;
49962;SDS011;36180;57.678;11.910;2023-07-31T09:54:11;3.00;;;1.05;;
49962;SDS011;36180;57.678;11.910;2023-07-31T09:56:41;2.45;;;1.00;;
49962;SDS011;36180;57.678;11.910;2023-07-31T09:59:12;3.22;;;1.10;;
49962;SDS011;36180;57.678;11.910;2023-07-31T10:01:40;1.88;;;1.00;;
49962;SDS011;36180;57.678;11.910;2023-07-31T10:04:08;2.65;;;1.25;;
49962;SDS011;36180;57.678;11.910;2023-07-31T10:06:36;4.22;;;1.17;;
49962;SDS011;36180;57.678;11.910;2023-07-31T10:09:05;4.25;;;1.30;;
49962;SDS011;36180;57.678;11.910;2023-07-31T10:11:34;4.00;;;1.10;;
49962;SDS011;36180;57.678;11.910;2023-07-31T10:14:04;3.97;;;1.15;;
49962;SDS011;36180;57.678;11.910;2023-07-31T10:16:33;5.65;;;1.33;;
49962;SDS011;36180;57.678;11.910;2023-07-31T10:19:05;3.20;;;1.00;;
49962;SDS011;36180;57.678;11.910;2023-07-31T10:21:33;2.20;;;1.10;;
49962;SDS011;36180;57.678;11.910;2023-07-31T10:24:02;2.28;;;1.05;;
49962;SDS011;36180;57.678;11.910;2023-07-31T10:26:30;2.85;;;0.98;;
49962;SDS011;36180;57.678;11.910;2023-07-31T10:28:58;4.75;;;1.10;;
49962;SDS011;36180;57.678;11.910;2023-07-31T10:31:25;3.25;;;0.82;;
49962;SDS011;36180;57.678;11.910;2023-07-31T10:33:53;4.82;;;1.10;;
49962;SDS011;36180;57.678;11.910;2023-07-31T10:36:21;3.90;;;1.17;;
49962;SDS011;36180;57.678;11.910;2023-07-31T10:38:48;2.60;;;1.00;;
49962;SDS011;36180;57.678;11.910;2023-07-31T10:41:16;3.42;;;1.10;;
49962;SDS011;36180;57.678;11.910;2023-07-31T10:43:45;4.72;;;1.20;;
49962;SDS011;36180;57.678;11.910;2023-07-31T10:46:13;2.20;;;0.93;;
49962;SDS011;36180;57.678;11.910;2023-07-31T10:48:41;2.95;;;0.90;;
49962;SDS011;36180;57.678;11.910;2023-07-31T10:51:10;2.75;;;0.82;;
49962;SDS011;36180;57.678;11.910;2023-07-31T10:53:39;3.70;;;1.20;;
49962;SDS011;36180;57.678;11.910;2023-07-31T10:56:07;2.30;;;0.75;;
49962;SDS011;36180;57.678;11.910;2023-07-31T10:58:37;5.22;;;1.10;;
49962;SDS011;36180;57.678;11.910;2023-07-31T11:01:05;3.78;;;1.00;;
49962;SDS011;36180;57.678;11.910;2023-07-31T11:03:42;3.20;;;1.00;;
49962;SDS011;36180;57.678;11.910;2023-07-31T11:06:12;3.42;;;1.17;;
49962;SDS011;36180;57.678;11.910;2023-07-31T11:08:43;4.13;;;1.10;;
49962;SDS011;36180;57.678;11.910;2023-07-31T11:11:11;8.73;;;1.17;;
49962;SDS011;36180;57.678;11.910;2023-07-31T11:13:43;1.75;;;0.63;;
49962;SDS011;36180;57.678;11.910;2023-07-31T11:16:13;3.45;;;0.82;;
49962;SDS011;36180;57.678;11.910;2023-07-31T11:18:40;3.33;;;0.95;;
49962;SDS011;36180;57.678;11.910;2023-07-31T11:21:08;2.25;;;0.70;;
49962;SDS011;36180;57.678;11.910;2023-07-31T11:23:40;2.60;;;0.82;;
49962;SDS011;36180;57.678;11.910;2023-07-31T11:26:07;2.10;;;0.80;;
49962;SDS011;36180;57.678;11.910;2023-07-31T11:28:34;2.60;;;0.80;;
49962;SDS011;36180;57.678;11.910;2023-07-31T11:31:02;1.77;;;1.10;;
49962;SDS011;36180;57.678;11.910;2023-07-31T11:33:29;2.53;;;0.80;;
49962;SDS011;36180;57.678;11.910;2023-07-31T11:35:57;6.70;;;0.98;;
49962;SDS011;36180;57.678;11.910;2023-07-31T11:38:26;3.60;;;1.05;;
49962;SDS011;36180;57.678;11.910;2023-07-31T11:40:54;1.88;;;0.80;;
49962;SDS011;36180;57.678;11.910;2023-07-31T11:43:22;1.50;;;0.60;;
49962;SDS011;36180;57.678;11.910;2023-07-31T11:45:52;2.20;;;0.75;;
49962;SDS011;36180;57.678;11.910;2023-07-31T11:48:20;3.03;;;0.93;;
49962;SDS011;36180;57.678;11.910;2023-07-31T11:50:49;3.15;;;1.02;;
49962;SDS011;36180;57.678;11.910;2023-07-31T11:53:17;3.28;;;1.00;;
49962;SDS011;36180;57.678;11.910;2023-07-31T11:55:48;2.20;;;0.82;;
49962;SDS011;36180;57.678;11.910;2023-07-31T11:58:16;2.15;;;0.93;;
49962;SDS011;36180;57.678;11.910;2023-07-31T12:00:44;4.72;;;1.05;;
49962;SDS011;36180;57.678;11.910;2023-07-31T12:03:11;4.50;;;1.00;;
49962;SDS011;36180;57.678;11.910;2023-07-31T12:05:39;2.63;;;0.80;;
49962;SDS011;36180;57.678;11.910;2023-07-31T12:08:09;3.53;;;0.90;;
49962;SDS011;36180;57.678;11.910;2023-07-31T12:10:37;3.95;;;0.80;;
49962;SDS011;36180;57.678;11.910;2023-07-31T12:13:08;7.43;;;1.35;;
49962;SDS011;36180;57.678;11.910;2023-07-31T12:15:39;3.40;;;0.73;;
49962;SDS011;36180;57.678;11.910;2023-07-31T12:18:07;3.47;;;0.90;;
49962;SDS011;36180;57.678;11.910;2023-07-31T12:20:39;6.10;;;1.45;;
49962;SDS011;36180;57.678;11.910;2023-07-31T12:23:07;2.17;;;0.70;;
49962;SDS011;36180;57.678;11.910;2023-07-31T12:25:34;3.15;;;1.17;;
49962;SDS011;36180;57.678;11.910;2023-07-31T12:28:06;3.50;;;1.10;;
49962;SDS011;36180;57.678;11.910;2023-07-31T12:30:37;7.63;;;1.20;;
49962;SDS011;36180;57.678;11.910;2023-07-31T12:33:05;4.35;;;1.10;;
49962;SDS011;36180;57.678;11.910;2023-07-31T12:35:36;5.22;;;1.05;;
49962;SDS011;36180;57.678;11.910;2023-07-31T12:38:04;5.70;;;1.10;;
49962;SDS011;36180;57.678;11.910;2023-07-31T12:40:31;2.38;;;1.10;;
49962;SDS011;36180;57.678;11.910;2023-07-31T12:43:00;3.42;;;0.90;;
49962;SDS011;36180;57.678;11.910;2023-07-31T12:45:30;7.05;;;0.93;;
49962;SDS011;36180;57.678;11.910;2023-07-31T12:47:57;3.83;;;0.98;;
49962;SDS011;36180;57.678;11.910;2023-07-31T12:50:24;2.17;;;0.85;;
49962;SDS011;36180;57.678;11.910;2023-07-31T12:52:52;2.42;;;0.90;;
49962;SDS011;36180;57.678;11.910;2023-07-31T12:55:20;4.10;;;0.90;;
49962;SDS011;36180;57.678;11.910;2023-07-31T12:57:47;4.28;;;0.70;;
49962;SDS011;36180;57.678;11.910;2023-07-31T13:00:14;4.45;;;1.05;;
49962;SDS011;36180;57.678;11.910;2023-07-31T13:02:43;5.88;;;1.17;;
49962;SDS011;36180;57.678;11.910;2023-07-31T13:05:10;3.63;;;0.90;;
49962;SDS011;36180;57.678;11.910;2023-07-31T13:07:38;3.35;;;0.90;;
49962;SDS011;36180;57.678;11.910;2023-07-31T13:10:06;4.85;;;1.02;;
49962;SDS011;36180;57.678;11.910;2023-07-31T13:12:33;3.53;;;0.85;;
49962;SDS011;36180;57.678;11.910;2023-07-31T13:15:00;3.63;;;0.85;;
49962;SDS011;36180;57.678;11.910;2023-07-31T13:17:27;3.47;;;1.17;;
49962;SDS011;36180;57.678;11.910;2023-07-31T13:19:56;3.75;;;1.15;;
49962;SDS011;36180;57.678;11.910;2023-07-31T13:22:23;4.00;;;1.02;;
49962;SDS011;36180;57.678;11.910;2023-07-31T13:24:50;3.55;;;1.25;;
49962;SDS011;36180;57.678;11.910;2023-07-31T13:27:17;5.03;;;1.42;;
49962;SDS011;36180;57.678;11.910;2023-07-31T13:29:46;3.50;;;0.95;;
49962;SDS011;36180;57.678;11.910;2023-07-31T13:32:13;3.08;;;1.20;;
49962;SDS011;36180;57.678;11.910;2023-07-31T13:34:41;3.50;;;1.13;;
49962;SDS011;36180;57.678;11.910;2023-07-31T13:37:10;6.10;;;1.10;;
49962;SDS011;36180;57.678;11.910;2023-07-31T13:39:37;3.72;;;1.10;;
49962;SDS011;36180;57.678;11.910;2023-07-31T13:42:04;5.90;;;1.23;;
49962;SDS011;36180;57.678;11.910;2023-07-31T13:44:33;7.32;;;1.13;;
49962;SDS011;36180;57.678;11.910;2023-07-31T13:47:00;3.97;;;1.10;;
49962;SDS011;36180;57.678;11.910;2023-07-31T13:49:27;9.82;;;1.38;;
49962;SDS011;36180;57.678;11.910;2023-07-31T13:51:55;9.50;;;1.45;;
49962;SDS011;36180;57.678;11.910;2023-07-31T13:54:24;5.95;;;1.33;;
49962;SDS011;36180;57.678;11.910;2023-07-31T13:56:52;6.60;;;1.45;;
49962;SDS011;36180;57.678;11.910;2023-07-31T13:59:19;11.77;;;1.83;;
49962;SDS011;36180;57.678;11.910;2023-07-31T14:01:46;4.93;;;1.30;;
49962;SDS011;36180;57.678;11.910;2023-07-31T14:04:13;5.97;;;0.82;;
49962;SDS011;36180;57.678;11.910;2023-07-31T14:06:41;4.25;;;1.17;;
49962;SDS011;36180;57.678;11.910;2023-07-31T14:09:08;2.88;;;1.02;;
49962;SDS011;36180;57.678;11.910;2023-07-31T14:11:36;5.90;;;1.10;;
49962;SDS011;36180;57.678;11.910;2023-07-31T14:14:06;4.53;;;1.08;;
49962;SDS011;36180;57.678;11.910;2023-07-31T14:16:34;8.82;;;1.77;;
49962;SDS011;36180;57.678;11.910;2023-07-31T14:19:02;4.13;;;1.25;;
49962;SDS011;36180;57.678;11.910;2023-07-31T14:21:29;6.10;;;1.38;;
49962;SDS011;36180;57.678;11.910;2023-07-31T14:23:56;5.38;;;1.48;;
49962;SDS011;36180;57.678;11.910;2023-07-31T14:26:23;7.75;;;1.48;;
49962;SDS011;36180;57.678;11.910;2023-07-31T14:28:51;6.95;;;1.50;;
49962;SDS011;36180;57.678;11.910;2023-07-31T14:31:18;8.18;;;1.50;;
49962;SDS011;36180;57.678;11.910;2023-07-31T14:33:45;6.40;;;1.45;;
49962;SDS011;36180;57.678;11.910;2023-07-31T14:36:12;3.60;;;1.70;;